sensor_id;sensor_type;location;lat;lon;timestamp;P1;durP1;ratioP1;P2;durP2;ratioP2
53052;SDS011;38934;52.690;6.184;2023-02-24T00:02:29;7.88;;;2.40;;
53052;SDS011;38934;52.690;6.184;2023-02-24T00:07:59;6.40;;;2.58;;
53052;SDS011;38934;52.690;6.184;2023-02-24T00:10:34;6.40;;;1.98;;
53052;SDS011;38934;52.690;6.184;2023-02-24T00:13:06;5.85;;;2.15;;
53052;SDS011;38934;52.690;6.184;2023-02-24T00:15:39;4.72;;;2.00;;
53052;SDS011;38934;52.690;6.184;2023-02-24T00:23:45;6.53;;;2.70;;
53052;SDS011;38934;52.690;6.184;2023-02-24T00:26:21;6.43;;;2.53;;
53052;SDS011;38934;52.690;6.184;2023-02-24T00:28:49;7.97;;;3.00;;
53052;SDS011;38934;52.690;6.184;2023-02-24T00:31:22;6.20;;;2.03;;
53052;SDS011;38934;52.690;6.184;2023-02-24T00:34:03;4.65;;;1.65;;
53052;SDS011;38934;52.690;6.184;2023-02-24T00:36:37;3.47;;;1.80;;
53052;SDS011;38934;52.690;6.184;2023-02-24T00:41:51;5.28;;;1.90;;
53052;SDS011;38934;52.690;6.184;2023-02-24T00:49:35;7.10;;;1.60;;
53052;SDS011;38934;52.690;6.184;2023-02-24T00:52:24;5.38;;;2.08;;
53052;SDS011;38934;52.690;6.184;2023-02-24T00:57:39;4.65;;;1.80;;
53052;SDS011;38934;52.690;6.184;2023-02-24T01:00:06;6.72;;;1.60;;
53052;SDS011;38934;52.690;6.184;2023-02-24T01:05:34;8.13;;;2.00;;
53052;SDS011;38934;52.690;6.184;2023-02-24T01:08:01;7.20;;;2.42;;
53052;SDS011;38934;52.690;6.184;2023-02-24T01:10:33;4.65;;;1.85;;
53052;SDS011;38934;52.690;6.184;2023-02-24T01:13:11;8.83;;;2.10;;
53052;SDS011;38934;52.690;6.184;2023-02-24T01:36:22;4.65;;;1.92;;
53052;SDS011;38934;52.690;6.184;2023-02-24T01:50:35;3.28;;;1.60;;
53052;SDS011;38934;52.690;6.184;2023-02-24T01:53:39;3.30;;;1.70;;
53052;SDS011;38934;52.690;6.184;2023-02-24T01:56:06;4.43;;;1.90;;
53052;SDS011;38934;52.690;6.184;2023-02-24T01:58:45;4.97;;;1.77;;
53052;SDS011;38934;52.690;6.184;2023-02-24T02:01:23;6.57;;;2.28;;
53052;SDS011;38934;52.690;6.184;2023-02-24T02:06:57;6.35;;;1.80;;
53052;SDS011;38934;52.690;6.184;2023-02-24T02:12:28;6.72;;;1.90;;
53052;SDS011;38934;52.690;6.184;2023-02-24T02:15:13;5.40;;;2.00;;
53052;SDS011;38934;52.690;6.184;2023-02-24T02:17:56;4.50;;;1.80;;
53052;SDS011;38934;52.690;6.184;2023-02-24T02:20:49;6.53;;;1.73;;
53052;SDS011;38934;52.690;6.184;2023-02-24T02:26:14;5.32;;;1.90;;
53052;SDS011;38934;52.690;6.184;2023-02-24T02:43:05;8.48;;;2.20;;
53052;SDS011;38934;52.690;6.184;2023-02-24T02:51:40;8.05;;;1.83;;
53052;SDS011;38934;52.690;6.184;2023-02-24T02:54:18;6.93;;;1.83;;
53052;SDS011;38934;52.690;6.184;2023-02-24T02:57:49;6.82;;;2.13;;
53052;SDS011;38934;52.690;6.184;2023-02-24T02:59:58;5.97;;;1.67;;
53052;SDS011;38934;52.690;6.184;2023-02-24T03:02:28;6.20;;;1.77;;
53052;SDS011;38934;52.690;6.184;2023-02-24T03:07:33;5.53;;;1.80;;
53052;SDS011;38934;52.690;6.184;2023-02-24T03:10:03;4.75;;;1.67;;
53052;SDS011;38934;52.690;6.184;2023-02-24T03:17:38;4.97;;;1.70;;
53052;SDS011;38934;52.690;6.184;2023-02-24T03:20:13;8.90;;;1.95;;
53052;SDS011;38934;52.690;6.184;2023-02-24T03:22:45;6.25;;;2.00;;
53052;SDS011;38934;52.690;6.184;2023-02-24T03:28:41;3.13;;;1.80;;
53052;SDS011;38934;52.690;6.184;2023-02-24T03:31:11;5.55;;;2.03;;
53052;SDS011;38934;52.690;6.184;2023-02-24T03:34:03;6.25;;;1.60;;
53052;SDS011;38934;52.690;6.184;2023-02-24T03:36:41;5.28;;;1.73;;
53052;SDS011;38934;52.690;6.184;2023-02-24T03:39:11;6.03;;;1.65;;
53052;SDS011;38934;52.690;6.184;2023-02-24T03:44:35;8.40;;;2.10;;
53052;SDS011;38934;52.690;6.184;2023-02-24T03:49:46;6.25;;;1.90;;
53052;SDS011;38934;52.690;6.184;2023-02-24T03:52:31;5.85;;;2.00;;
53052;SDS011;38934;52.690;6.184;2023-02-24T04:06:22;6.53;;;1.63;;
53052;SDS011;38934;52.690;6.184;2023-02-24T04:08:54;5.68;;;1.90;;
53052;SDS011;38934;52.690;6.184;2023-02-24T04:19:43;6.70;;;2.17;;
53052;SDS011;38934;52.690;6.184;2023-02-24T04:22:13;4.78;;;1.85;;
53052;SDS011;38934;52.690;6.184;2023-02-24T04:24:52;5.13;;;1.58;;
53052;SDS011;38934;52.690;6.184;2023-02-24T04:27:21;6.43;;;1.70;;
53052;SDS011;38934;52.690;6.184;2023-02-24T04:29:52;4.95;;;1.42;;
53052;SDS011;38934;52.690;6.184;2023-02-24T04:32:29;7.00;;;1.70;;
53052;SDS011;38934;52.690;6.184;2023-02-24T04:35:06;5.38;;;1.70;;
53052;SDS011;38934;52.690;6.184;2023-02-24T04:37:33;6.05;;;1.70;;
53052;SDS011;38934;52.690;6.184;2023-02-24T04:40:02;3.92;;;1.70;;
53052;SDS011;38934;52.690;6.184;2023-02-24T04:42:35;4.72;;;1.75;;
53052;SDS011;38934;52.690;6.184;2023-02-24T04:45:13;7.60;;;1.90;;
53052;SDS011;38934;52.690;6.184;2023-02-24T04:47:42;5.45;;;2.00;;
53052;SDS011;38934;52.690;6.184;2023-02-24T04:50:11;5.47;;;2.00;;
53052;SDS011;38934;52.690;6.184;2023-02-24T04:52:49;5.53;;;2.50;;
53052;SDS011;38934;52.690;6.184;2023-02-24T04:55:15;4.30;;;2.15;;
53052;SDS011;38934;52.690;6.184;2023-02-24T04:57:42;4.97;;;2.05;;
53052;SDS011;38934;52.690;6.184;2023-02-24T05:00:13;5.93;;;2.05;;
53052;SDS011;38934;52.690;6.184;2023-02-24T05:02:50;5.13;;;2.08;;
53052;SDS011;38934;52.690;6.184;2023-02-24T05:05:16;9.50;;;2.38;;
53052;SDS011;38934;52.690;6.184;2023-02-24T05:07:51;4.90;;;2.00;;
53052;SDS011;38934;52.690;6.184;2023-02-24T05:10:21;4.45;;;2.45;;
53052;SDS011;38934;52.690;6.184;2023-02-24T05:12:54;8.55;;;1.90;;
53052;SDS011;38934;52.690;6.184;2023-02-24T05:15:25;4.70;;;1.70;;
53052;SDS011;38934;52.690;6.184;2023-02-24T05:20:23;6.70;;;2.17;;
53052;SDS011;38934;52.690;6.184;2023-02-24T05:26:05;5.97;;;2.10;;
53052;SDS011;38934;52.690;6.184;2023-02-24T05:28:39;5.82;;;2.20;;
53052;SDS011;38934;52.690;6.184;2023-02-24T05:31:09;6.45;;;2.03;;
53052;SDS011;38934;52.690;6.184;2023-02-24T05:33:37;9.02;;;2.55;;
53052;SDS011;38934;52.690;6.184;2023-02-24T05:36:04;7.05;;;2.60;;
53052;SDS011;38934;52.690;6.184;2023-02-24T05:38:32;6.45;;;2.20;;
53052;SDS011;38934;52.690;6.184;2023-02-24T05:41:08;5.85;;;2.13;;
53052;SDS011;38934;52.690;6.184;2023-02-24T05:44:05;8.43;;;2.35;;
53052;SDS011;38934;52.690;6.184;2023-02-24T05:46:34;3.97;;;2.10;;
53052;SDS011;38934;52.690;6.184;2023-02-24T05:49:12;8.48;;;2.63;;
53052;SDS011;38934;52.690;6.184;2023-02-24T05:51:46;8.32;;;2.22;;
53052;SDS011;38934;52.690;6.184;2023-02-24T05:54:19;7.13;;;2.08;;
53052;SDS011;38934;52.690;6.184;2023-02-24T05:56:46;10.30;;;2.60;;
53052;SDS011;38934;52.690;6.184;2023-02-24T05:59:22;6.18;;;2.58;;
53052;SDS011;38934;52.690;6.184;2023-02-24T06:01:49;4.60;;;2.58;;
53052;SDS011;38934;52.690;6.184;2023-02-24T06:07:31;7.93;;;2.88;;
53052;SDS011;38934;52.690;6.184;2023-02-24T06:10:00;5.07;;;2.22;;
53052;SDS011;38934;52.690;6.184;2023-02-24T06:12:41;9.52;;;2.70;;
53052;SDS011;38934;52.690;6.184;2023-02-24T06:15:13;6.70;;;2.40;;
53052;SDS011;38934;52.690;6.184;2023-02-24T06:17:39;7.30;;;2.50;;
53052;SDS011;38934;52.690;6.184;2023-02-24T06:20:05;7.93;;;2.30;;
53052;SDS011;38934;52.690;6.184;2023-02-24T06:25:27;7.63;;;2.47;;
53052;SDS011;38934;52.690;6.184;2023-02-24T06:27:54;9.23;;;2.60;;
53052;SDS011;38934;52.690;6.184;2023-02-24T06:30:23;8.75;;;2.60;;
53052;SDS011;38934;52.690;6.184;2023-02-24T06:32:52;8.75;;;2.80;;
53052;SDS011;38934;52.690;6.184;2023-02-24T06:35:27;4.55;;;2.42;;
53052;SDS011;38934;52.690;6.184;2023-02-24T06:38:01;4.88;;;2.40;;
53052;SDS011;38934;52.690;6.184;2023-02-24T06:40:30;10.20;;;2.70;;
53052;SDS011;38934;52.690;6.184;2023-02-24T06:42:56;8.82;;;2.90;;
53052;SDS011;38934;52.690;6.184;2023-02-24T06:45:36;7.20;;;2.67;;
53052;SDS011;38934;52.690;6.184;2023-02-24T06:48:11;8.88;;;2.25;;
53052;SDS011;38934;52.690;6.184;2023-02-24T06:50:45;6.78;;;2.67;;
53052;SDS011;38934;52.690;6.184;2023-02-24T06:53:25;9.05;;;2.90;;
53052;SDS011;38934;52.690;6.184;2023-02-24T06:56:04;7.68;;;3.28;;
53052;SDS011;38934;52.690;6.184;2023-02-24T06:58:46;9.48;;;3.70;;
53052;SDS011;38934;52.690;6.184;2023-02-24T07:04:25;10.10;;;2.90;;
53052;SDS011;38934;52.690;6.184;2023-02-24T07:09:46;10.75;;;3.17;;
53052;SDS011;38934;52.690;6.184;2023-02-24T07:12:23;15.50;;;3.40;;
53052;SDS011;38934;52.690;6.184;2023-02-24T07:14:55;13.40;;;3.60;;
53052;SDS011;38934;52.690;6.184;2023-02-24T07:17:22;8.80;;;3.28;;
53052;SDS011;38934;52.690;6.184;2023-02-24T07:19:48;7.28;;;3.00;;
53052;SDS011;38934;52.690;6.184;2023-02-24T07:22:14;9.20;;;3.30;;
53052;SDS011;38934;52.690;6.184;2023-02-24T07:24:42;15.13;;;3.35;;
53052;SDS011;38934;52.690;6.184;2023-02-24T07:27:13;10.50;;;3.20;;
53052;SDS011;38934;52.690;6.184;2023-02-24T07:29:46;10.75;;;3.58;;
53052;SDS011;38934;52.690;6.184;2023-02-24T07:32:13;11.02;;;3.38;;
53052;SDS011;38934;52.690;6.184;2023-02-24T07:34:40;10.85;;;4.10;;
53052;SDS011;38934;52.690;6.184;2023-02-24T07:37:07;11.77;;;3.67;;
53052;SDS011;38934;52.690;6.184;2023-02-24T07:39:33;11.85;;;3.35;;
53052;SDS011;38934;52.690;6.184;2023-02-24T07:42:00;15.80;;;3.65;;
53052;SDS011;38934;52.690;6.184;2023-02-24T07:44:26;11.88;;;3.50;;
53052;SDS011;38934;52.690;6.184;2023-02-24T07:46:54;9.50;;;3.17;;
53052;SDS011;38934;52.690;6.184;2023-02-24T07:49:23;10.55;;;3.50;;
53052;SDS011;38934;52.690;6.184;2023-02-24T07:51:50;14.35;;;4.03;;
53052;SDS011;38934;52.690;6.184;2023-02-24T07:54:20;14.85;;;3.83;;
53052;SDS011;38934;52.690;6.184;2023-02-24T07:56:47;11.35;;;3.33;;
53052;SDS011;38934;52.690;6.184;2023-02-24T07:59:21;10.15;;;3.65;;
53052;SDS011;38934;52.690;6.184;2023-02-24T08:01:47;9.20;;;3.38;;
53052;SDS011;38934;52.690;6.184;2023-02-24T08:04:20;13.95;;;3.63;;
53052;SDS011;38934;52.690;6.184;2023-02-24T08:06:47;8.00;;;3.50;;
53052;SDS011;38934;52.690;6.184;2023-02-24T08:09:20;8.52;;;3.30;;
53052;SDS011;38934;52.690;6.184;2023-02-24T08:12:07;14.48;;;4.28;;
53052;SDS011;38934;52.690;6.184;2023-02-24T08:14:35;12.88;;;3.92;;
53052;SDS011;38934;52.690;6.184;2023-02-24T08:17:09;14.35;;;3.72;;
53052;SDS011;38934;52.690;6.184;2023-02-24T08:19:35;13.57;;;3.97;;
53052;SDS011;38934;52.690;6.184;2023-02-24T08:22:09;16.65;;;3.85;;
53052;SDS011;38934;52.690;6.184;2023-02-24T08:24:45;10.50;;;3.58;;
53052;SDS011;38934;52.690;6.184;2023-02-24T08:27:14;14.55;;;3.50;;
53052;SDS011;38934;52.690;6.184;2023-02-24T08:29:48;8.20;;;3.80;;
53052;SDS011;38934;52.690;6.184;2023-02-24T08:34:58;10.90;;;4.38;;
53052;SDS011;38934;52.690;6.184;2023-02-24T08:37:27;16.05;;;4.35;;
53052;SDS011;38934;52.690;6.184;2023-02-24T08:39:58;16.80;;;5.00;;
53052;SDS011;38934;52.690;6.184;2023-02-24T08:42:25;18.27;;;6.82;;
53052;SDS011;38934;52.690;6.184;2023-02-24T08:45:00;26.30;;;8.05;;
53052;SDS011;38934;52.690;6.184;2023-02-24T08:47:27;28.02;;;8.05;;
53052;SDS011;38934;52.690;6.184;2023-02-24T08:49:58;24.00;;;7.57;;
53052;SDS011;38934;52.690;6.184;2023-02-24T08:52:25;17.60;;;6.45;;
53052;SDS011;38934;52.690;6.184;2023-02-24T08:54:52;12.68;;;5.05;;
53052;SDS011;38934;52.690;6.184;2023-02-24T08:57:25;14.68;;;4.70;;
53052;SDS011;38934;52.690;6.184;2023-02-24T08:59:51;16.27;;;5.13;;
53052;SDS011;38934;52.690;6.184;2023-02-24T09:02:21;15.68;;;4.90;;
53052;SDS011;38934;52.690;6.184;2023-02-24T09:05:02;16.45;;;5.38;;
53052;SDS011;38934;52.690;6.184;2023-02-24T09:07:38;15.55;;;5.82;;
53052;SDS011;38934;52.690;6.184;2023-02-24T09:10:06;21.98;;;6.20;;
53052;SDS011;38934;52.690;6.184;2023-02-24T09:12:36;14.00;;;5.43;;
53052;SDS011;38934;52.690;6.184;2023-02-24T09:15:06;16.23;;;6.07;;
53052;SDS011;38934;52.690;6.184;2023-02-24T09:17:32;19.60;;;6.60;;
53052;SDS011;38934;52.690;6.184;2023-02-24T09:23:00;16.55;;;6.53;;
53052;SDS011;38934;52.690;6.184;2023-02-24T09:25:27;21.60;;;6.72;;
53052;SDS011;38934;52.690;6.184;2023-02-24T09:28:09;20.58;;;7.35;;
53052;SDS011;38934;52.690;6.184;2023-02-24T09:30:41;17.20;;;6.82;;
53052;SDS011;38934;52.690;6.184;2023-02-24T09:35:50;15.90;;;6.93;;
53052;SDS011;38934;52.690;6.184;2023-02-24T09:38:18;16.85;;;6.97;;
53052;SDS011;38934;52.690;6.184;2023-02-24T09:40:46;13.82;;;7.88;;
53052;SDS011;38934;52.690;6.184;2023-02-24T09:43:24;18.55;;;7.90;;
53052;SDS011;38934;52.690;6.184;2023-02-24T09:45:54;17.42;;;7.43;;
53052;SDS011;38934;52.690;6.184;2023-02-24T09:48:36;14.88;;;7.65;;
53052;SDS011;38934;52.690;6.184;2023-02-24T09:51:09;13.30;;;6.97;;
53052;SDS011;38934;52.690;6.184;2023-02-24T09:53:46;13.88;;;7.65;;
53052;SDS011;38934;52.690;6.184;2023-02-24T09:56:18;15.98;;;8.20;;
53052;SDS011;38934;52.690;6.184;2023-02-24T09:59:08;17.75;;;7.85;;
53052;SDS011;38934;52.690;6.184;2023-02-24T10:01:57;17.30;;;7.70;;
53052;SDS011;38934;52.690;6.184;2023-02-24T10:07:13;18.00;;;8.02;;
53052;SDS011;38934;52.690;6.184;2023-02-24T10:09:41;15.00;;;8.05;;
53052;SDS011;38934;52.690;6.184;2023-02-24T10:14:48;21.00;;;8.57;;
53052;SDS011;38934;52.690;6.184;2023-02-24T10:17:38;17.77;;;8.90;;
53052;SDS011;38934;52.690;6.184;2023-02-24T10:20:10;16.42;;;8.48;;
53052;SDS011;38934;52.690;6.184;2023-02-24T10:22:59;16.92;;;9.00;;
53052;SDS011;38934;52.690;6.184;2023-02-24T10:30:59;17.08;;;9.18;;
53052;SDS011;38934;52.690;6.184;2023-02-24T10:33:35;18.05;;;8.70;;
53052;SDS011;38934;52.690;6.184;2023-02-24T10:36:10;16.85;;;9.70;;
53052;SDS011;38934;52.690;6.184;2023-02-24T10:38:37;16.42;;;7.57;;
53052;SDS011;38934;52.690;6.184;2023-02-24T10:41:07;16.40;;;7.70;;
53052;SDS011;38934;52.690;6.184;2023-02-24T10:43:34;16.00;;;7.40;;
53052;SDS011;38934;52.690;6.184;2023-02-24T10:46:30;17.75;;;7.80;;
53052;SDS011;38934;52.690;6.184;2023-02-24T10:48:58;18.33;;;7.25;;
53052;SDS011;38934;52.690;6.184;2023-02-24T10:51:28;18.35;;;7.25;;
53052;SDS011;38934;52.690;6.184;2023-02-24T10:54:08;19.73;;;7.75;;
53052;SDS011;38934;52.690;6.184;2023-02-24T10:56:47;15.48;;;6.55;;
53052;SDS011;38934;52.690;6.184;2023-02-24T11:00:07;16.42;;;7.63;;
53052;SDS011;38934;52.690;6.184;2023-02-24T11:02:51;20.98;;;7.20;;
53052;SDS011;38934;52.690;6.184;2023-02-24T11:05:34;15.23;;;7.18;;
53052;SDS011;38934;52.690;6.184;2023-02-24T11:08:17;24.80;;;8.57;;
53052;SDS011;38934;52.690;6.184;2023-02-24T11:11:09;34.10;;;8.90;;
53052;SDS011;38934;52.690;6.184;2023-02-24T11:13:46;27.05;;;7.72;;
53052;SDS011;38934;52.690;6.184;2023-02-24T11:16:53;35.97;;;7.03;;
53052;SDS011;38934;52.690;6.184;2023-02-24T11:19:42;46.92;;;8.27;;
53052;SDS011;38934;52.690;6.184;2023-02-24T11:22:14;33.50;;;5.75;;
53052;SDS011;38934;52.690;6.184;2023-02-24T11:24:42;33.70;;;6.75;;
53052;SDS011;38934;52.690;6.184;2023-02-24T11:27:09;28.63;;;5.43;;
53052;SDS011;38934;52.690;6.184;2023-02-24T11:40:01;23.95;;;4.10;;
53052;SDS011;38934;52.690;6.184;2023-02-24T11:47:34;22.70;;;4.70;;
53052;SDS011;38934;52.690;6.184;2023-02-24T11:52:45;27.90;;;4.35;;
53052;SDS011;38934;52.690;6.184;2023-02-24T11:55:27;33.15;;;5.82;;
53052;SDS011;38934;52.690;6.184;2023-02-24T11:57:56;25.33;;;4.78;;
53052;SDS011;38934;52.690;6.184;2023-02-24T12:00:23;16.05;;;4.00;;
53052;SDS011;38934;52.690;6.184;2023-02-24T12:05:20;22.92;;;4.93;;
53052;SDS011;38934;52.690;6.184;2023-02-24T12:10:19;29.60;;;5.10;;
53052;SDS011;38934;52.690;6.184;2023-02-24T12:20:59;16.77;;;4.10;;
53052;SDS011;38934;52.690;6.184;2023-02-24T12:23:33;29.65;;;4.93;;
53052;SDS011;38934;52.690;6.184;2023-02-24T12:28:48;24.27;;;4.88;;
53052;SDS011;38934;52.690;6.184;2023-02-24T12:38:49;26.77;;;5.35;;
53052;SDS011;38934;52.690;6.184;2023-02-24T12:46:37;25.50;;;5.30;;
53052;SDS011;38934;52.690;6.184;2023-02-24T12:54:23;21.17;;;3.95;;
53052;SDS011;38934;52.690;6.184;2023-02-24T12:59:31;16.73;;;3.47;;
53052;SDS011;38934;52.690;6.184;2023-02-24T13:10:16;20.67;;;3.30;;
53052;SDS011;38934;52.690;6.184;2023-02-24T13:12:51;21.00;;;3.70;;
53052;SDS011;38934;52.690;6.184;2023-02-24T13:15:23;17.80;;;3.60;;
53052;SDS011;38934;52.690;6.184;2023-02-24T13:17:51;21.35;;;3.33;;
53052;SDS011;38934;52.690;6.184;2023-02-24T13:20:28;18.25;;;3.67;;
53052;SDS011;38934;52.690;6.184;2023-02-24T13:22:55;21.65;;;3.58;;
53052;SDS011;38934;52.690;6.184;2023-02-24T13:25:28;18.30;;;3.88;;
53052;SDS011;38934;52.690;6.184;2023-02-24T13:27:55;21.58;;;4.43;;
53052;SDS011;38934;52.690;6.184;2023-02-24T13:30:25;17.83;;;3.72;;
53052;SDS011;38934;52.690;6.184;2023-02-24T13:33:00;19.70;;;3.92;;
53052;SDS011;38934;52.690;6.184;2023-02-24T13:37:52;8.07;;;2.03;;
53052;SDS011;38934;52.690;6.184;2023-02-24T13:40:19;6.95;;;2.40;;
53052;SDS011;38934;52.690;6.184;2023-02-24T13:45:22;9.18;;;2.15;;
53052;SDS011;38934;52.690;6.184;2023-02-24T13:53:10;13.63;;;2.08;;
53052;SDS011;38934;52.690;6.184;2023-02-24T14:03:24;8.27;;;1.70;;
53052;SDS011;38934;52.690;6.184;2023-02-24T14:05:51;5.70;;;1.75;;
53052;SDS011;38934;52.690;6.184;2023-02-24T14:08:22;4.43;;;1.48;;
53052;SDS011;38934;52.690;6.184;2023-02-24T14:10:56;3.50;;;1.60;;
53052;SDS011;38934;52.690;6.184;2023-02-24T14:13:24;9.48;;;1.90;;
53052;SDS011;38934;52.690;6.184;2023-02-24T14:15:58;9.82;;;2.25;;
53052;SDS011;38934;52.690;6.184;2023-02-24T14:18:25;8.70;;;2.15;;
53052;SDS011;38934;52.690;6.184;2023-02-24T14:20:58;18.27;;;3.30;;
53052;SDS011;38934;52.690;6.184;2023-02-24T14:23:25;8.95;;;2.20;;
53052;SDS011;38934;52.690;6.184;2023-02-24T14:25:52;9.18;;;2.47;;
53052;SDS011;38934;52.690;6.184;2023-02-24T14:28:21;15.15;;;2.90;;
53052;SDS011;38934;52.690;6.184;2023-02-24T14:30:52;10.10;;;2.80;;
53052;SDS011;38934;52.690;6.184;2023-02-24T14:33:52;13.82;;;2.63;;
53052;SDS011;38934;52.690;6.184;2023-02-24T14:36:15;7.05;;;2.10;;
53052;SDS011;38934;52.690;6.184;2023-02-24T14:38:45;13.18;;;2.60;;
53052;SDS011;38934;52.690;6.184;2023-02-24T14:41:21;12.93;;;2.35;;
53052;SDS011;38934;52.690;6.184;2023-02-24T14:43:48;9.40;;;2.22;;
53052;SDS011;38934;52.690;6.184;2023-02-24T14:46:14;9.27;;;2.10;;
53052;SDS011;38934;52.690;6.184;2023-02-24T14:48:41;13.88;;;2.85;;
53052;SDS011;38934;52.690;6.184;2023-02-24T14:51:12;13.45;;;2.63;;
53052;SDS011;38934;52.690;6.184;2023-02-24T14:53:44;11.05;;;2.63;;
53052;SDS011;38934;52.690;6.184;2023-02-24T14:56:11;8.93;;;2.65;;
53052;SDS011;38934;52.690;6.184;2023-02-24T14:58:49;11.77;;;2.28;;
53052;SDS011;38934;52.690;6.184;2023-02-24T15:01:34;7.47;;;1.98;;
53052;SDS011;38934;52.690;6.184;2023-02-24T15:06:46;8.80;;;2.60;;
53052;SDS011;38934;52.690;6.184;2023-02-24T15:09:19;12.27;;;2.72;;
53052;SDS011;38934;52.690;6.184;2023-02-24T15:11:47;14.02;;;2.55;;
53052;SDS011;38934;52.690;6.184;2023-02-24T15:14:18;14.32;;;2.60;;
53052;SDS011;38934;52.690;6.184;2023-02-24T15:16:52;12.38;;;2.55;;
53052;SDS011;38934;52.690;6.184;2023-02-24T15:19:24;7.32;;;2.10;;
53052;SDS011;38934;52.690;6.184;2023-02-24T15:21:52;13.25;;;2.70;;
53052;SDS011;38934;52.690;6.184;2023-02-24T15:24:20;11.95;;;2.20;;
53052;SDS011;38934;52.690;6.184;2023-02-24T15:26:53;7.32;;;2.20;;
53052;SDS011;38934;52.690;6.184;2023-02-24T15:29:21;11.18;;;2.40;;
53052;SDS011;38934;52.690;6.184;2023-02-24T15:31:49;10.23;;;2.15;;
53052;SDS011;38934;52.690;6.184;2023-02-24T15:34:20;9.77;;;1.80;;
53052;SDS011;38934;52.690;6.184;2023-02-24T15:36:46;8.00;;;2.03;;
53052;SDS011;38934;52.690;6.184;2023-02-24T15:39:19;8.68;;;2.05;;
53052;SDS011;38934;52.690;6.184;2023-02-24T15:41:47;10.27;;;3.28;;
53052;SDS011;38934;52.690;6.184;2023-02-24T15:44:24;11.48;;;2.42;;
53052;SDS011;38934;52.690;6.184;2023-02-24T15:46:51;11.80;;;2.50;;
53052;SDS011;38934;52.690;6.184;2023-02-24T15:49:17;9.98;;;3.08;;
53052;SDS011;38934;52.690;6.184;2023-02-24T15:51:47;9.88;;;2.08;;
53052;SDS011;38934;52.690;6.184;2023-02-24T15:56:43;7.10;;;1.75;;
53052;SDS011;38934;52.690;6.184;2023-02-24T15:59:28;7.28;;;1.70;;
53052;SDS011;38934;52.690;6.184;2023-02-24T16:02:01;7.38;;;1.83;;
53052;SDS011;38934;52.690;6.184;2023-02-24T16:04:30;11.40;;;2.30;;
53052;SDS011;38934;52.690;6.184;2023-02-24T16:07:02;10.57;;;2.00;;
53052;SDS011;38934;52.690;6.184;2023-02-24T16:09:40;6.32;;;1.88;;
53052;SDS011;38934;52.690;6.184;2023-02-24T16:12:14;11.75;;;2.28;;
53052;SDS011;38934;52.690;6.184;2023-02-24T16:14:42;8.82;;;2.55;;
53052;SDS011;38934;52.690;6.184;2023-02-24T16:17:16;9.40;;;2.55;;
53052;SDS011;38934;52.690;6.184;2023-02-24T16:19:48;10.85;;;2.50;;
53052;SDS011;38934;52.690;6.184;2023-02-24T16:22:14;11.98;;;2.33;;
53052;SDS011;38934;52.690;6.184;2023-02-24T16:24:40;10.07;;;2.40;;
53052;SDS011;38934;52.690;6.184;2023-02-24T16:27:12;13.40;;;2.95;;
53052;SDS011;38934;52.690;6.184;2023-02-24T16:29:40;11.82;;;2.17;;
53052;SDS011;38934;52.690;6.184;2023-02-24T16:32:07;14.65;;;2.83;;
53052;SDS011;38934;52.690;6.184;2023-02-24T16:34:33;6.95;;;2.20;;
53052;SDS011;38934;52.690;6.184;2023-02-24T16:36:59;10.60;;;2.42;;
53052;SDS011;38934;52.690;6.184;2023-02-24T16:39:25;8.43;;;2.13;;
53052;SDS011;38934;52.690;6.184;2023-02-24T16:41:53;10.18;;;2.67;;
53052;SDS011;38934;52.690;6.184;2023-02-24T16:44:19;6.80;;;2.38;;
53052;SDS011;38934;52.690;6.184;2023-02-24T16:46:47;11.63;;;2.50;;
53052;SDS011;38934;52.690;6.184;2023-02-24T16:49:16;7.65;;;2.40;;
53052;SDS011;38934;52.690;6.184;2023-02-24T16:51:43;11.15;;;2.88;;
53052;SDS011;38934;52.690;6.184;2023-02-24T16:54:09;8.57;;;2.13;;
53052;SDS011;38934;52.690;6.184;2023-02-24T16:56:37;11.68;;;2.20;;
53052;SDS011;38934;52.690;6.184;2023-02-24T16:59:03;10.57;;;2.38;;
53052;SDS011;38934;52.690;6.184;2023-02-24T17:01:29;11.35;;;2.20;;
53052;SDS011;38934;52.690;6.184;2023-02-24T17:03:55;8.10;;;2.50;;
53052;SDS011;38934;52.690;6.184;2023-02-24T17:06:21;7.07;;;2.10;;
53052;SDS011;38934;52.690;6.184;2023-02-24T17:08:48;9.55;;;2.30;;
53052;SDS011;38934;52.690;6.184;2023-02-24T17:11:15;12.68;;;2.70;;
53052;SDS011;38934;52.690;6.184;2023-02-24T17:13:43;13.73;;;2.90;;
53052;SDS011;38934;52.690;6.184;2023-02-24T17:16:09;9.57;;;2.75;;
53052;SDS011;38934;52.690;6.184;2023-02-24T17:18:35;14.77;;;2.85;;
53052;SDS011;38934;52.690;6.184;2023-02-24T17:21:08;16.27;;;3.28;;
53052;SDS011;38934;52.690;6.184;2023-02-24T17:23:38;14.93;;;3.22;;
53052;SDS011;38934;52.690;6.184;2023-02-24T17:26:04;12.18;;;3.20;;
53052;SDS011;38934;52.690;6.184;2023-02-24T17:28:30;7.82;;;3.05;;
53052;SDS011;38934;52.690;6.184;2023-02-24T17:30:56;10.45;;;3.95;;
53052;SDS011;38934;52.690;6.184;2023-02-24T17:33:22;12.40;;;3.40;;
53052;SDS011;38934;52.690;6.184;2023-02-24T17:35:59;13.85;;;3.20;;
53052;SDS011;38934;52.690;6.184;2023-02-24T17:38:25;12.63;;;3.20;;
53052;SDS011;38934;52.690;6.184;2023-02-24T17:40:51;14.32;;;3.28;;
53052;SDS011;38934;52.690;6.184;2023-02-24T17:43:19;13.48;;;3.15;;
53052;SDS011;38934;52.690;6.184;2023-02-24T17:45:45;13.50;;;3.03;;
53052;SDS011;38934;52.690;6.184;2023-02-24T17:51:35;10.88;;;3.75;;
53052;SDS011;38934;52.690;6.184;2023-02-24T17:54:15;14.25;;;3.97;;
53052;SDS011;38934;52.690;6.184;2023-02-24T17:56:49;18.75;;;3.35;;
53052;SDS011;38934;52.690;6.184;2023-02-24T18:01:51;20.58;;;3.58;;
53052;SDS011;38934;52.690;6.184;2023-02-24T18:04:19;17.30;;;3.25;;
53052;SDS011;38934;52.690;6.184;2023-02-24T18:09:35;20.27;;;4.30;;
53052;SDS011;38934;52.690;6.184;2023-02-24T18:12:02;17.73;;;3.35;;
53052;SDS011;38934;52.690;6.184;2023-02-24T18:14:28;17.48;;;3.63;;
53052;SDS011;38934;52.690;6.184;2023-02-24T18:16:57;17.65;;;4.93;;
53052;SDS011;38934;52.690;6.184;2023-02-24T18:22:36;13.00;;;3.55;;
53052;SDS011;38934;52.690;6.184;2023-02-24T18:25:02;25.35;;;4.25;;
53052;SDS011;38934;52.690;6.184;2023-02-24T18:27:37;13.48;;;3.20;;
53052;SDS011;38934;52.690;6.184;2023-02-24T18:30:06;14.18;;;4.22;;
53052;SDS011;38934;52.690;6.184;2023-02-24T18:32:36;15.48;;;3.63;;
53052;SDS011;38934;52.690;6.184;2023-02-24T18:35:08;21.02;;;3.40;;
53052;SDS011;38934;52.690;6.184;2023-02-24T18:37:41;24.05;;;3.85;;
53052;SDS011;38934;52.690;6.184;2023-02-24T18:40:10;14.73;;;3.10;;
53052;SDS011;38934;52.690;6.184;2023-02-24T18:42:36;17.17;;;3.80;;
53052;SDS011;38934;52.690;6.184;2023-02-24T18:45:02;14.48;;;4.45;;
53052;SDS011;38934;52.690;6.184;2023-02-24T18:47:28;18.38;;;3.97;;
53052;SDS011;38934;52.690;6.184;2023-02-24T18:49:57;13.18;;;3.17;;
53052;SDS011;38934;52.690;6.184;2023-02-24T18:52:31;9.55;;;2.92;;
53052;SDS011;38934;52.690;6.184;2023-02-24T18:54:58;12.23;;;3.17;;
53052;SDS011;38934;52.690;6.184;2023-02-24T18:57:24;9.52;;;3.03;;
53052;SDS011;38934;52.690;6.184;2023-02-24T18:59:54;12.10;;;2.65;;
53052;SDS011;38934;52.690;6.184;2023-02-24T19:02:20;14.25;;;4.07;;
53052;SDS011;38934;52.690;6.184;2023-02-24T19:04:48;16.25;;;3.42;;
53052;SDS011;38934;52.690;6.184;2023-02-24T19:07:15;13.30;;;3.63;;
53052;SDS011;38934;52.690;6.184;2023-02-24T19:09:49;11.30;;;3.08;;
53052;SDS011;38934;52.690;6.184;2023-02-24T19:12:16;18.30;;;3.33;;
53052;SDS011;38934;52.690;6.184;2023-02-24T19:14:48;20.45;;;4.05;;
53052;SDS011;38934;52.690;6.184;2023-02-24T19:17:18;13.70;;;3.00;;
53052;SDS011;38934;52.690;6.184;2023-02-24T19:22:43;11.77;;;3.10;;
53052;SDS011;38934;52.690;6.184;2023-02-24T19:25:11;21.80;;;4.00;;
53052;SDS011;38934;52.690;6.184;2023-02-24T19:27:41;13.52;;;3.00;;